createdAt,value
2023-03-31T05:02:58.291Z,99598.81
2023-03-31T05:05:28.743Z,99593.69
2023-03-31T05:08:06.236Z,99589.19
2023-03-31T05:10:36.492Z,99588.44
2023-03-31T05:13:13.241Z,99588.06
2023-03-31T05:15:45.311Z,99578.41
2023-03-31T05:18:24.197Z,99577.38
2023-03-31T05:21:01.211Z,99577.09
2023-03-31T05:23:31.537Z,99569.94
2023-03-31T05:26:08.473Z,99567.72
2023-03-31T05:28:39.250Z,99565.41
2023-03-31T05:31:19.245Z,99552.72
2023-03-31T05:33:52.008Z,99545.53
2023-03-31T05:36:30.305Z,99546.34
2023-03-31T05:39:00.543Z,99548.38
2023-03-31T05:41:37.337Z,99544.91
2023-03-31T05:44:14.239Z,99536.03
2023-03-31T05:46:51.302Z,99536.50
2023-03-31T05:49:24.196Z,99531.34
2023-03-31T05:52:01.296Z,99525.19
2023-03-31T05:54:38.270Z,99526.00
2023-03-31T05:57:15.311Z,99518.63
2023-03-31T05:59:45.512Z,99516.78
2023-03-31T06:02:23.419Z,99520.66
2023-03-31T06:04:56.288Z,99515.31
2023-03-31T06:07:34.341Z,99506.75
2023-03-31T06:10:04.501Z,99511.66
2023-03-31T06:12:42.337Z,99510.84
2023-03-31T06:15:13.413Z,99521.31
2023-03-31T06:17:50.320Z,99506.75
2023-03-31T06:20:28.139Z,99502.63
2023-03-31T06:23:06.365Z,99499.94
2023-03-31T06:25:50.001Z,99498.16
2023-03-31T06:28:28.315Z,99501.09
2023-03-31T06:31:16.633Z,99496.34
2023-03-31T06:33:47.646Z,99491.19
2023-03-31T06:36:30.389Z,99492.22
2023-03-31T06:39:07.307Z,99492.81
2023-03-31T06:41:38.973Z,99486.66
2023-03-31T06:44:15.351Z,99483.41
2023-03-31T06:46:52.369Z,99486.94
2023-03-31T06:49:22.737Z,99477.91
2023-03-31T06:52:02.386Z,99479.75
2023-03-31T06:54:32.797Z,99476.25
2023-03-31T06:57:09.388Z,99477.28
2023-03-31T06:59:46.553Z,99480.97
2023-03-31T07:02:16.711Z,99468.41
2023-03-31T07:04:53.342Z,99463.72
2023-03-31T07:07:26.198Z,99458.38
2023-03-31T07:10:03.398Z,99455.25
2023-03-31T07:12:36.637Z,99461.03
2023-03-31T07:15:14.397Z,99455.84
2023-03-31T07:17:44.703Z,99449.34
2023-03-31T07:20:24.397Z,99444.75
2023-03-31T07:22:57.225Z,99441.53
2023-03-31T07:25:34.396Z,99442.78
2023-03-31T07:28:05.711Z,99443.38
2023-03-31T07:30:43.358Z,99444.00
2023-03-31T07:33:13.973Z,99440.97
2023-03-31T07:36:00.237Z,99442.25
2023-03-31T07:38:47.439Z,99443.25
2023-03-31T07:41:21.106Z,99437.91
2023-03-31T07:43:58.428Z,99441.47
2023-03-31T07:46:31.272Z,99441.28
2023-03-31T07:49:09.442Z,99429.81
2023-03-31T07:51:39.600Z,99436.25
2023-03-31T07:54:19.408Z,99431.19
2023-03-31T07:56:49.500Z,99420.97
2023-03-31T07:59:26.414Z,99416.13
2023-03-31T08:01:56.684Z,99416.22
2023-03-31T08:04:33.675Z,99421.47
2023-03-31T08:07:04.481Z,99424.53
2023-03-31T08:09:43.429Z,99417.53
2023-03-31T08:12:13.764Z,99421.91
2023-03-31T08:14:50.460Z,99415.72
2023-03-31T08:17:20.786Z,99402.75
2023-03-31T08:20:01.642Z,99404.63
2023-03-31T08:22:34.037Z,99398.25
2023-03-31T08:25:14.621Z,99398.69
2023-03-31T08:27:44.807Z,99386.72
2023-03-31T08:30:23.465Z,99391.00
2023-03-31T08:33:00.512Z,99384.56
2023-03-31T08:35:30.804Z,99386.22
2023-03-31T08:38:08.510Z,99388.47
2023-03-31T08:40:43.940Z,99378.16
2023-03-31T08:43:28.590Z,99374.47
2023-03-31T08:45:59.162Z,99356.78
2023-03-31T08:48:39.733Z,99359.28
2023-03-31T08:51:23.507Z,99353.97
2023-03-31T08:54:11.535Z,99368.09
2023-03-31T08:56:51.534Z,99368.91
2023-03-31T08:59:39.511Z,99364.38
2023-03-31T09:02:21.440Z,99348.34
2023-03-31T09:05:26.548Z,99355.97
2023-03-31T09:08:14.541Z,99358.13
2023-03-31T09:10:56.570Z,99358.84
2023-03-31T09:13:47.522Z,99352.69
2023-03-31T09:16:27.591Z,99352.56
2023-03-31T09:19:03.003Z,99345.63
2023-03-31T09:21:44.520Z,99347.13
2023-03-31T09:24:28.069Z,99346.56
2023-03-31T09:27:03.464Z,99343.25
2023-03-31T09:29:52.549Z,99335.22
2023-03-31T09:32:25.910Z,99337.09
2023-03-31T09:35:07.601Z,99330.28
2023-03-31T09:37:37.795Z,99330.63
2023-03-31T09:40:18.552Z,99323.59
2023-03-31T09:42:51.099Z,99330.84
2023-03-31T09:45:30.660Z,99320.94
2023-03-31T09:48:06.933Z,99318.25
2023-03-31T09:50:51.594Z,99316.81
2023-03-31T09:53:29.257Z,99303.63
2023-03-31T09:56:12.586Z,99311.03
2023-03-31T09:58:46.315Z,99308.13
2023-03-31T10:01:25.565Z,99303.22
2023-03-31T10:03:58.514Z,99308.38
2023-03-31T10:06:35.657Z,99301.56
2023-03-31T10:09:08.011Z,99307.13
2023-03-31T10:11:44.590Z,99301.69
2023-03-31T10:14:18.101Z,99300.41
2023-03-31T10:17:02.646Z,99295.03
2023-03-31T10:19:44.683Z,99274.25
2023-03-31T10:22:19.042Z,99277.56
2023-03-31T10:24:57.636Z,99267.38
2023-03-31T10:27:31.288Z,99284.91
2023-03-31T10:30:10.660Z,99278.28
2023-03-31T10:32:48.081Z,99276.84
2023-03-31T10:35:35.654Z,99280.38
2023-03-31T10:38:09.930Z,99277.53
2023-03-31T10:40:47.707Z,99278.19
2023-03-31T10:43:27.680Z,99275.97
2023-03-31T10:46:00.242Z,99269.19
2023-03-31T10:48:44.724Z,99274.31
2023-03-31T10:51:19.740Z,99288.38
2023-03-31T10:53:58.770Z,99272.25
2023-03-31T10:56:42.042Z,99278.88
2023-03-31T10:59:46.822Z,99269.59
2023-03-31T11:02:54.646Z,99272.28
2023-03-31T11:05:41.670Z,99273.50
2023-03-31T11:08:44.176Z,99275.88
2023-03-31T11:11:41.689Z,99273.81
2023-03-31T11:14:19.492Z,99269.94
2023-03-31T11:17:04.742Z,99268.78
2023-03-31T11:19:54.709Z,99282.41
2023-03-31T11:22:34.555Z,99271.31
2023-03-31T11:25:35.694Z,99258.53
2023-03-31T11:28:33.393Z,99255.66
2023-03-31T11:31:30.773Z,99261.44
2023-03-31T11:34:18.454Z,99262.69
2023-03-31T11:37:31.783Z,99252.81
2023-03-31T11:40:26.290Z,99267.22
2023-03-31T11:43:08.752Z,99256.09
2023-03-31T11:45:44.179Z,99239.41
2023-03-31T11:48:28.780Z,99248.44
2023-03-31T11:51:01.046Z,99239.72
2023-03-31T11:53:45.786Z,99237.03
2023-03-31T11:56:20.141Z,99230.59
2023-03-31T11:59:02.887Z,99240.69
2023-03-31T12:01:44.035Z,99243.59
2023-03-31T12:04:36.787Z,99240.47
2023-03-31T12:07:23.766Z,99227.06
2023-03-31T12:10:06.154Z,99232.44
2023-03-31T12:12:54.788Z,99228.53
2023-03-31T12:15:30.588Z,99223.78
2023-03-31T12:18:13.126Z,99220.50
2023-03-31T12:20:48.367Z,99212.25
2023-03-31T12:23:31.788Z,99217.41
2023-03-31T12:26:17.813Z,99214.31
2023-03-31T12:29:01.358Z,99216.97
2023-03-31T12:31:41.823Z,99212.69
2023-03-31T12:34:17.871Z,99199.06
2023-03-31T12:37:20.009Z,99190.78
2023-03-31T12:40:08.202Z,99196.38
2023-03-31T12:43:23.862Z,99189.78
2023-03-31T12:46:07.553Z,99186.69
2023-03-31T12:49:08.838Z,99196.63
2023-03-31T12:52:13.893Z,99190.47
2023-03-31T12:55:13.072Z,99186.13
2023-03-31T12:57:49.895Z,99172.28
2023-03-31T13:00:30.332Z,99165.91
